sensor_id;sensor_type;location;lat;lon;timestamp;pressure;altitude;pressure_sealevel;temperature;humidity
37848;BME280;23688;33.130;-117.188;2024-03-23T00:55:37;99496.66;;;16.73;100.00
37848;BME280;23688;33.130;-117.188;2024-03-23T00:58:05;99506.09;;;16.65;100.00
37848;BME280;23688;33.130;-117.188;2024-03-23T01:00:32;99502.72;;;16.72;100.00
37848;BME280;23688;33.130;-117.188;2024-03-23T01:02:59;99514.72;;;16.58;100.00
37848;BME280;23688;33.130;-117.188;2024-03-23T01:05:26;99528.53;;;16.47;100.00
37848;BME280;23688;33.130;-117.188;2024-03-23T01:07:53;99516.81;;;16.27;100.00
37848;BME280;23688;33.130;-117.188;2024-03-23T01:10:19;99531.59;;;16.25;100.00
37848;BME280;23688;33.130;-117.188;2024-03-23T01:12:46;99527.78;;;16.08;100.00
37848;BME280;23688;33.130;-117.188;2024-03-23T01:15:12;99522.97;;;15.85;100.00
37848;BME280;23688;33.130;-117.188;2024-03-23T01:17:38;99523.84;;;15.86;100.00
37848;BME280;23688;33.130;-117.188;2024-03-23T01:20:05;99526.03;;;15.67;100.00
37848;BME280;23688;33.130;-117.188;2024-03-23T01:22:32;99534.94;;;15.74;100.00
37848;BME280;23688;33.130;-117.188;2024-03-23T01:24:59;99538.09;;;15.60;100.00
37848;BME280;23688;33.130;-117.188;2024-03-23T01:27:25;99550.41;;;15.65;100.00
37848;BME280;23688;33.130;-117.188;2024-03-23T01:29:52;99553.63;;;15.51;100.00
37848;BME280;23688;33.130;-117.188;2024-03-23T01:32:19;99559.47;;;15.39;100.00
37848;BME280;23688;33.130;-117.188;2024-03-23T01:34:45;99546.94;;;15.26;100.00
37848;BME280;23688;33.130;-117.188;2024-03-23T01:37:12;99544.03;;;15.14;100.00
37848;BME280;23688;33.130;-117.188;2024-03-23T01:39:38;99533.97;;;14.93;100.00
37848;BME280;23688;33.130;-117.188;2024-03-23T01:42:05;99540.31;;;15.04;100.00
37848;BME280;23688;33.130;-117.188;2024-03-23T01:44:31;99527.28;;;15.06;100.00
37848;BME280;23688;33.130;-117.188;2024-03-23T01:46:59;99522.75;;;14.98;100.00
37848;BME280;23688;33.130;-117.188;2024-03-23T01:49:26;99521.66;;;14.89;100.00
37848;BME280;23688;33.130;-117.188;2024-03-23T01:51:54;99540.88;;;14.91;100.00
37848;BME280;23688;33.130;-117.188;2024-03-23T01:54:21;99535.19;;;15.09;100.00
37848;BME280;23688;33.130;-117.188;2024-03-23T01:56:48;99535.13;;;15.06;100.00
37848;BME280;23688;33.130;-117.188;2024-03-23T01:59:16;99534.47;;;15.14;100.00
37848;BME280;23688;33.130;-117.188;2024-03-23T02:01:42;99531.88;;;15.16;100.00
37848;BME280;23688;33.130;-117.188;2024-03-23T02:04:13;99533.28;;;15.02;100.00
37848;BME280;23688;33.130;-117.188;2024-03-23T02:06:39;99534.66;;;14.86;100.00
37848;BME280;23688;33.130;-117.188;2024-03-23T02:09:06;99527.69;;;14.86;100.00
37848;BME280;23688;33.130;-117.188;2024-03-23T02:11:33;99540.81;;;14.89;100.00
37848;BME280;23688;33.130;-117.188;2024-03-23T02:13:59;99538.56;;;15.03;100.00
37848;BME280;23688;33.130;-117.188;2024-03-23T02:16:26;99543.59;;;14.95;100.00
37848;BME280;23688;33.130;-117.188;2024-03-23T02:18:52;99540.59;;;14.80;100.00
37848;BME280;23688;33.130;-117.188;2024-03-23T02:21:19;99544.00;;;14.77;100.00
37848;BME280;23688;33.130;-117.188;2024-03-23T02:23:45;99543.44;;;14.89;100.00
37848;BME280;23688;33.130;-117.188;2024-03-23T02:26:12;99530.41;;;14.91;100.00
37848;BME280;23688;33.130;-117.188;2024-03-23T02:28:41;99520.59;;;14.81;100.00
37848;BME280;23688;33.130;-117.188;2024-03-23T02:31:07;99540.28;;;15.03;100.00
37848;BME280;23688;33.130;-117.188;2024-03-23T02:33:34;99539.50;;;15.07;100.00
37848;BME280;23688;33.130;-117.188;2024-03-23T02:36:04;99538.38;;;14.95;100.00
37848;BME280;23688;33.130;-117.188;2024-03-23T02:38:31;99540.91;;;14.92;100.00
37848;BME280;23688;33.130;-117.188;2024-03-23T02:41:07;99549.72;;;14.96;100.00
37848;BME280;23688;33.130;-117.188;2024-03-23T02:43:34;99539.50;;;15.07;100.00
37848;BME280;23688;33.130;-117.188;2024-03-23T02:46:01;99544.06;;;15.15;100.00
37848;BME280;23688;33.130;-117.188;2024-03-23T02:48:28;99547.03;;;15.31;100.00
37848;BME280;23688;33.130;-117.188;2024-03-23T02:50:55;99528.66;;;15.28;100.00
37848;BME280;23688;33.130;-117.188;2024-03-23T02:53:21;99518.97;;;15.22;100.00
37848;BME280;23688;33.130;-117.188;2024-03-23T02:55:48;99541.78;;;15.29;100.00
37848;BME280;23688;33.130;-117.188;2024-03-23T02:58:14;99548.72;;;15.29;100.00
37848;BME280;23688;33.130;-117.188;2024-03-23T03:00:41;99540.88;;;15.29;100.00
37848;BME280;23688;33.130;-117.188;2024-03-23T03:03:07;99553.25;;;15.34;100.00
37848;BME280;23688;33.130;-117.188;2024-03-23T03:05:34;99561.84;;;15.30;100.00
37848;BME280;23688;33.130;-117.188;2024-03-23T03:08:01;99549.53;;;15.26;100.00
37848;BME280;23688;33.130;-117.188;2024-03-23T03:10:27;99542.59;;;15.27;100.00
37848;BME280;23688;33.130;-117.188;2024-03-23T03:12:54;99527.63;;;15.19;100.00
37848;BME280;23688;33.130;-117.188;2024-03-23T03:15:20;99537.31;;;15.25;100.00
37848;BME280;23688;33.130;-117.188;2024-03-23T03:17:46;99523.84;;;15.08;100.00
37848;BME280;23688;33.130;-117.188;2024-03-23T03:20:13;99530.75;;;15.05;100.00
37848;BME280;23688;33.130;-117.188;2024-03-23T03:22:43;99545.34;;;14.95;100.00
37848;BME280;23688;33.130;-117.188;2024-03-23T03:25:09;99542.50;;;14.86;100.00
37848;BME280;23688;33.130;-117.188;2024-03-23T03:27:36;99530.94;;;14.77;100.00
37848;BME280;23688;33.130;-117.188;2024-03-23T03:30:02;99538.66;;;14.71;100.00
37848;BME280;23688;33.130;-117.188;2024-03-23T03:32:32;99537.56;;;14.63;100.00
37848;BME280;23688;33.130;-117.188;2024-03-23T03:34:59;99560.34;;;14.69;100.00
37848;BME280;23688;33.130;-117.188;2024-03-23T03:37:25;99560.41;;;14.70;100.00
37848;BME280;23688;33.130;-117.188;2024-03-23T03:39:51;99557.75;;;14.69;100.00
37848;BME280;23688;33.130;-117.188;2024-03-23T03:42:18;99556.81;;;14.67;100.00
37848;BME280;23688;33.130;-117.188;2024-03-23T03:44:44;99559.28;;;14.61;100.00
37848;BME280;23688;33.130;-117.188;2024-03-23T03:47:11;99557.44;;;14.58;100.00
37848;BME280;23688;33.130;-117.188;2024-03-23T03:49:37;99562.28;;;14.44;100.00
37848;BME280;23688;33.130;-117.188;2024-03-23T03:52:04;99558.91;;;14.17;100.00
37848;BME280;23688;33.130;-117.188;2024-03-23T03:54:32;99563.19;;;14.13;100.00
37848;BME280;23688;33.130;-117.188;2024-03-23T03:56:59;99586.81;;;14.18;100.00
37848;BME280;23688;33.130;-117.188;2024-03-23T03:59:25;99579.78;;;14.15;100.00
37848;BME280;23688;33.130;-117.188;2024-03-23T04:01:52;99578.91;;;14.15;100.00
37848;BME280;23688;33.130;-117.188;2024-03-23T04:04:18;99593.75;;;14.17;100.00
37848;BME280;23688;33.130;-117.188;2024-03-23T04:06:46;99602.88;;;14.01;100.00
37848;BME280;23688;33.130;-117.188;2024-03-23T04:09:12;99608.81;;;13.97;100.00
37848;BME280;23688;33.130;-117.188;2024-03-23T04:11:39;99589.38;;;13.86;100.00
37848;BME280;23688;33.130;-117.188;2024-03-23T04:14:05;99613.13;;;13.66;100.00
37848;BME280;23688;33.130;-117.188;2024-03-23T04:16:35;99600.75;;;13.59;100.00
37848;BME280;23688;33.130;-117.188;2024-03-23T04:19:02;99590.97;;;13.81;100.00
37848;BME280;23688;33.130;-117.188;2024-03-23T04:21:29;99589.00;;;14.04;100.00
37848;BME280;23688;33.130;-117.188;2024-03-23T04:23:56;99584.13;;;14.16;100.00
37848;BME280;23688;33.130;-117.188;2024-03-23T04:26:22;99591.84;;;14.11;100.00
37848;BME280;23688;33.130;-117.188;2024-03-23T04:28:48;99599.88;;;14.18;100.00
37848;BME280;23688;33.130;-117.188;2024-03-23T04:31:15;99592.38;;;14.30;100.00
37848;BME280;23688;33.130;-117.188;2024-03-23T04:33:41;99591.56;;;14.32;100.00
37848;BME280;23688;33.130;-117.188;2024-03-23T04:36:07;99591.16;;;14.17;100.00
37848;BME280;23688;33.130;-117.188;2024-03-23T04:38:35;99609.72;;;14.28;100.00
37848;BME280;23688;33.130;-117.188;2024-03-23T04:41:01;99602.91;;;14.33;100.00
37848;BME280;23688;33.130;-117.188;2024-03-23T04:43:28;99617.09;;;14.43;100.00
37848;BME280;23688;33.130;-117.188;2024-03-23T04:45:54;99614.66;;;14.49;100.00
37848;BME280;23688;33.130;-117.188;2024-03-23T04:48:21;99612.06;;;14.50;100.00
37848;BME280;23688;33.130;-117.188;2024-03-23T04:50:48;99616.47;;;14.51;100.00
37848;BME280;23688;33.130;-117.188;2024-03-23T04:53:15;99600.41;;;14.38;100.00
37848;BME280;23688;33.130;-117.188;2024-03-23T04:55:42;99608.44;;;14.44;100.00
37848;BME280;23688;33.130;-117.188;2024-03-23T04:58:09;99615.50;;;14.48;100.00
37848;BME280;23688;33.130;-117.188;2024-03-23T05:00:35;99616.34;;;14.47;100.00
37848;BME280;23688;33.130;-117.188;2024-03-23T05:03:01;99612.75;;;14.43;100.00
37848;BME280;23688;33.130;-117.188;2024-03-23T05:05:29;99597.47;;;14.25;100.00
37848;BME280;23688;33.130;-117.188;2024-03-23T05:07:56;99605.38;;;14.28;100.00
37848;BME280;23688;33.130;-117.188;2024-03-23T05:10:22;99623.72;;;14.30;100.00
37848;BME280;23688;33.130;-117.188;2024-03-23T05:12:49;99609.44;;;14.17;100.00
37848;BME280;23688;33.130;-117.188;2024-03-23T05:15:15;99595.66;;;14.23;100.00
37848;BME280;23688;33.130;-117.188;2024-03-23T05:17:41;99595.84;;;14.29;100.00
37848;BME280;23688;33.130;-117.188;2024-03-23T05:20:08;99594.78;;;14.22;100.00
37848;BME280;23688;33.130;-117.188;2024-03-23T05:22:39;99595.72;;;14.26;100.00
37848;BME280;23688;33.130;-117.188;2024-03-23T05:25:05;99600.22;;;14.30;100.00
37848;BME280;23688;33.130;-117.188;2024-03-23T05:27:33;99605.38;;;14.28;100.00
37848;BME280;23688;33.130;-117.188;2024-03-23T05:30:00;99603.88;;;14.37;100.00
37848;BME280;23688;33.130;-117.188;2024-03-23T05:32:26;99603.69;;;14.30;100.00
37848;BME280;23688;33.130;-117.188;2024-03-23T05:34:54;99607.16;;;14.29;100.00
37848;BME280;23688;33.130;-117.188;2024-03-23T05:37:23;99612.47;;;14.32;100.00
37848;BME280;23688;33.130;-117.188;2024-03-23T05:39:49;99604.75;;;14.37;100.00
37848;BME280;23688;33.130;-117.188;2024-03-23T05:42:17;99614.41;;;14.40;100.00
37848;BME280;23688;33.130;-117.188;2024-03-23T05:44:46;99612.66;;;14.40;100.00
37848;BME280;23688;33.130;-117.188;2024-03-23T05:47:13;99603.97;;;14.40;100.00
37848;BME280;23688;33.130;-117.188;2024-03-23T05:49:42;99608.16;;;14.34;100.00
37848;BME280;23688;33.130;-117.188;2024-03-23T05:52:09;99610.00;;;14.39;100.00
37848;BME280;23688;33.130;-117.188;2024-03-23T05:54:36;99611.16;;;14.48;100.00
37848;BME280;23688;33.130;-117.188;2024-03-23T05:57:03;99597.25;;;14.49;100.00
37848;BME280;23688;33.130;-117.188;2024-03-23T05:59:30;99609.47;;;14.50;100.00
37848;BME280;23688;33.130;-117.188;2024-03-23T06:01:56;99614.84;;;14.53;100.00
37848;BME280;23688;33.130;-117.188;2024-03-23T06:04:23;99616.59;;;14.54;100.00
37848;BME280;23688;33.130;-117.188;2024-03-23T06:06:51;99617.44;;;14.53;100.00
37848;BME280;23688;33.130;-117.188;2024-03-23T06:09:20;99609.69;;;14.57;100.00
37848;BME280;23688;33.130;-117.188;2024-03-23T06:11:48;99602.66;;;14.54;100.00
37848;BME280;23688;33.130;-117.188;2024-03-23T06:14:14;99608.63;;;14.51;100.00
37848;BME280;23688;33.130;-117.188;2024-03-23T06:16:41;99610.31;;;14.49;100.00
37848;BME280;23688;33.130;-117.188;2024-03-23T06:19:07;99603.28;;;14.47;100.00
37848;BME280;23688;33.130;-117.188;2024-03-23T06:21:34;99597.94;;;14.42;100.00
37848;BME280;23688;33.130;-117.188;2024-03-23T06:24:00;99595.91;;;14.32;100.00
37848;BME280;23688;33.130;-117.188;2024-03-23T06:26:26;99583.59;;;14.28;100.00
37848;BME280;23688;33.130;-117.188;2024-03-23T06:28:52;99586.28;;;14.29;100.00
37848;BME280;23688;33.130;-117.188;2024-03-23T06:31:19;99592.44;;;14.33;100.00
37848;BME280;23688;33.130;-117.188;2024-03-23T06:33:45;99562.59;;;14.23;100.00
37848;BME280;23688;33.130;-117.188;2024-03-23T06:36:12;99571.41;;;14.27;100.00
37848;BME280;23688;33.130;-117.188;2024-03-23T06:38:41;99579.25;;;14.28;100.00
37848;BME280;23688;33.130;-117.188;2024-03-23T06:41:08;99602.06;;;14.34;100.00
37848;BME280;23688;33.130;-117.188;2024-03-23T06:43:35;99587.09;;;14.28;100.00
37848;BME280;23688;33.130;-117.188;2024-03-23T06:46:02;99594.06;;;14.28;100.00
37848;BME280;23688;33.130;-117.188;2024-03-23T06:48:30;99595.84;;;14.29;100.00
37848;BME280;23688;33.130;-117.188;2024-03-23T06:50:57;99594.13;;;14.31;100.00
37848;BME280;23688;33.130;-117.188;2024-03-23T06:53:24;99581.88;;;14.28;100.00
37848;BME280;23688;33.130;-117.188;2024-03-23T06:55:51;99579.47;;;14.36;100.00
37848;BME280;23688;33.130;-117.188;2024-03-23T06:58:23;99582.19;;;14.39;100.00
37848;BME280;23688;33.130;-117.188;2024-03-23T07:00:49;99585.69;;;14.40;100.00
37848;BME280;23688;33.130;-117.188;2024-03-23T07:03:16;99590.94;;;14.41;100.00
37848;BME280;23688;33.130;-117.188;2024-03-23T07:05:43;99580.31;;;14.35;100.00
37848;BME280;23688;33.130;-117.188;2024-03-23T07:08:09;99577.72;;;14.35;100.00
37848;BME280;23688;33.130;-117.188;2024-03-23T07:10:39;99583.88;;;14.39;100.00
37848;BME280;23688;33.130;-117.188;2024-03-23T07:13:06;99595.25;;;14.39;100.00
37848;BME280;23688;33.130;-117.188;2024-03-23T07:15:33;99596.94;;;14.37;100.00
37848;BME280;23688;33.130;-117.188;2024-03-23T07:17:59;99590.78;;;14.35;100.00
37848;BME280;23688;33.130;-117.188;2024-03-23T07:20:25;99580.31;;;14.35;100.00
37848;BME280;23688;33.130;-117.188;2024-03-23T07:22:52;99566.25;;;14.30;100.00
37848;BME280;23688;33.130;-117.188;2024-03-23T07:25:19;99563.72;;;14.33;100.00
37848;BME280;23688;33.130;-117.188;2024-03-23T07:27:47;99549.72;;;14.31;100.00
37848;BME280;23688;33.130;-117.188;2024-03-23T07:30:13;99552.53;;;14.37;100.00
37848;BME280;23688;33.130;-117.188;2024-03-23T07:32:39;99547.31;;;14.37;100.00
37848;BME280;23688;33.130;-117.188;2024-03-23T07:35:06;99539.38;;;14.34;100.00
37848;BME280;23688;33.130;-117.188;2024-03-23T07:37:32;99558.69;;;14.41;100.00
37848;BME280;23688;33.130;-117.188;2024-03-23T07:39:59;99565.59;;;14.39;100.00
37848;BME280;23688;33.130;-117.188;2024-03-23T07:42:26;99568.22;;;14.39;100.00
37848;BME280;23688;33.130;-117.188;2024-03-23T07:44:52;99572.69;;;14.43;100.00
37848;BME280;23688;33.130;-117.188;2024-03-23T07:47:20;99560.50;;;14.42;100.00
37848;BME280;23688;33.130;-117.188;2024-03-23T07:49:47;99560.63;;;14.48;100.00
37848;BME280;23688;33.130;-117.188;2024-03-23T07:52:13;99566.72;;;14.48;100.00
37848;BME280;23688;33.130;-117.188;2024-03-23T07:54:40;99573.81;;;14.51;100.00
37848;BME280;23688;33.130;-117.188;2024-03-23T07:57:06;99566.78;;;14.50;100.00
37848;BME280;23688;33.130;-117.188;2024-03-23T07:59:32;99551.06;;;14.48;100.00
37848;BME280;23688;33.130;-117.188;2024-03-23T08:02:00;99547.78;;;14.54;100.00
37848;BME280;23688;33.130;-117.188;2024-03-23T08:04:28;99539.84;;;14.51;100.00
37848;BME280;23688;33.130;-117.188;2024-03-23T08:06:55;99524.03;;;14.46;100.00
37848;BME280;23688;33.130;-117.188;2024-03-23T08:09:21;99533.75;;;14.52;100.00
37848;BME280;23688;33.130;-117.188;2024-03-23T08:11:48;99527.47;;;14.44;100.00
37848;BME280;23688;33.130;-117.188;2024-03-23T08:14:14;99524.63;;;14.36;100.00
37848;BME280;23688;33.130;-117.188;2024-03-23T08:16:40;99516.44;;;14.22;100.00
37848;BME280;23688;33.130;-117.188;2024-03-23T08:19:07;99532.09;;;14.22;100.00
37848;BME280;23688;33.130;-117.188;2024-03-23T08:21:34;99530.31;;;14.21;100.00
37848;BME280;23688;33.130;-117.188;2024-03-23T08:24:00;99513.69;;;14.18;100.00
37848;BME280;23688;33.130;-117.188;2024-03-23T08:26:27;99540.00;;;14.25;100.00
37848;BME280;23688;33.130;-117.188;2024-03-23T08:28:54;99543.50;;;14.26;100.00
37848;BME280;23688;33.130;-117.188;2024-03-23T08:31:21;99527.69;;;14.20;100.00
37848;BME280;23688;33.130;-117.188;2024-03-23T08:33:48;99537.25;;;14.19;100.00
37848;BME280;23688;33.130;-117.188;2024-03-23T08:36:14;99537.34;;;14.24;100.00
37848;BME280;23688;33.130;-117.188;2024-03-23T08:38:40;99538.19;;;14.23;100.00
37848;BME280;23688;33.130;-117.188;2024-03-23T08:41:09;99525.94;;;14.20;100.00
37848;BME280;23688;33.130;-117.188;2024-03-23T08:43:37;99522.72;;;14.29;100.00
37848;BME280;23688;33.130;-117.188;2024-03-23T08:48:31;99514.94;;;14.32;100.00
37848;BME280;23688;33.130;-117.188;2024-03-23T08:51:05;99521.84;;;14.30;100.00
37848;BME280;23688;33.130;-117.188;2024-03-23T08:53:32;99512.28;;;14.29;100.00
37848;BME280;23688;33.130;-117.188;2024-03-23T08:55:59;99507.03;;;14.29;100.00
37848;BME280;23688;33.130;-117.188;2024-03-23T08:58:27;99477.34;;;14.25;100.00
37848;BME280;23688;33.130;-117.188;2024-03-23T09:00:55;99488.84;;;14.33;100.00
37848;BME280;23688;33.130;-117.188;2024-03-23T09:03:25;99473.03;;;14.27;100.00
37848;BME280;23688;33.130;-117.188;2024-03-23T09:05:52;99488.97;;;14.38;100.00
37848;BME280;23688;33.130;-117.188;2024-03-23T09:08:20;99488.22;;;14.42;100.00
37848;BME280;23688;33.130;-117.188;2024-03-23T09:10:47;99487.38;;;14.43;100.00
37848;BME280;23688;33.130;-117.188;2024-03-23T09:13:14;99482.81;;;14.36;100.00
37848;BME280;23688;33.130;-117.188;2024-03-23T09:15:51;99480.22;;;14.36;100.00
37848;BME280;23688;33.130;-117.188;2024-03-23T09:18:22;99487.41;;;14.45;100.00
37848;BME280;23688;33.130;-117.188;2024-03-23T09:20:50;99487.47;;;14.46;100.00
37848;BME280;23688;33.130;-117.188;2024-03-23T09:23:16;99470.56;;;14.33;100.00
37848;BME280;23688;33.130;-117.188;2024-03-23T09:25:42;99478.78;;;14.47;100.00
37848;BME280;23688;33.130;-117.188;2024-03-23T09:28:09;99478.84;;;14.50;100.00
37848;BME280;23688;33.130;-117.188;2024-03-23T09:30:36;99458.88;;;14.52;100.00
37848;BME280;23688;33.130;-117.188;2024-03-23T09:33:09;99451.78;;;14.47;100.00
37848;BME280;23688;33.130;-117.188;2024-03-23T09:35:39;99463.16;;;14.49;100.00
37848;BME280;23688;33.130;-117.188;2024-03-23T09:38:06;99450.09;;;14.49;100.00
37848;BME280;23688;33.130;-117.188;2024-03-23T09:40:44;99455.38;;;14.52;100.00
37848;BME280;23688;33.130;-117.188;2024-03-23T09:43:11;99453.56;;;14.49;100.00
37848;BME280;23688;33.130;-117.188;2024-03-23T09:45:41;99453.56;;;14.49;100.00
37848;BME280;23688;33.130;-117.188;2024-03-23T09:48:09;99457.88;;;14.47;100.00
37848;BME280;23688;33.130;-117.188;2024-03-23T09:50:44;99455.25;;;14.47;100.00
37848;BME280;23688;33.130;-117.188;2024-03-23T09:53:14;99445.56;;;14.43;100.00
37848;BME280;23688;33.130;-117.188;2024-03-23T09:55:42;99442.97;;;14.43;100.00
37848;BME280;23688;33.130;-117.188;2024-03-23T09:58:12;99436.97;;;14.47;100.00
37848;BME280;23688;33.130;-117.188;2024-03-23T10:00:39;99439.66;;;14.50;100.00
37848;BME280;23688;33.130;-117.188;2024-03-23T10:03:05;99439.66;;;14.50;100.00
37848;BME280;23688;33.130;-117.188;2024-03-23T10:05:32;99437.91;;;14.49;100.00
37848;BME280;23688;33.130;-117.188;2024-03-23T10:10:41;99450.16;;;14.52;100.00
37848;BME280;23688;33.130;-117.188;2024-03-23T10:13:07;99434.59;;;14.55;100.00
37848;BME280;23688;33.130;-117.188;2024-03-23T10:15:35;99417.88;;;14.50;100.00
37848;BME280;23688;33.130;-117.188;2024-03-23T10:18:20;99423.31;;;14.56;100.00
37848;BME280;23688;33.130;-117.188;2024-03-23T10:20:52;99415.47;;;14.56;100.00
37848;BME280;23688;33.130;-117.188;2024-03-23T10:23:33;99393.66;;;14.55;100.00
37848;BME280;23688;33.130;-117.188;2024-03-23T10:26:21;99389.22;;;14.53;100.00
37848;BME280;23688;33.130;-117.188;2024-03-23T10:28:58;99404.88;;;14.51;100.00
37848;BME280;23688;33.130;-117.188;2024-03-23T10:31:30;99415.22;;;14.47;100.00
37848;BME280;23688;33.130;-117.188;2024-03-23T10:34:00;99414.28;;;14.45;100.00
37848;BME280;23688;33.130;-117.188;2024-03-23T10:36:30;99425.47;;;14.39;100.00
37848;BME280;23688;33.130;-117.188;2024-03-23T10:38:56;99428.09;;;14.41;100.00
37848;BME280;23688;33.130;-117.188;2024-03-23T10:41:29;99411.41;;;14.34;100.00
37848;BME280;23688;33.130;-117.188;2024-03-23T10:43:58;99402.50;;;14.26;100.00
37848;BME280;23688;33.130;-117.188;2024-03-23T10:46:26;99429.72;;;14.35;100.00
37848;BME280;23688;33.130;-117.188;2024-03-23T10:48:52;99420.88;;;14.30;100.00
37848;BME280;23688;33.130;-117.188;2024-03-23T10:51:18;99421.81;;;14.32;100.00
37848;BME280;23688;33.130;-117.188;2024-03-23T10:53:45;99419.13;;;14.29;100.00
37848;BME280;23688;33.130;-117.188;2024-03-23T10:56:12;99408.44;;;14.20;100.00
37848;BME280;23688;33.130;-117.188;2024-03-23T10:58:42;99411.13;;;14.22;100.00
37848;BME280;23688;33.130;-117.188;2024-03-23T11:01:11;99379.38;;;14.06;100.00
37848;BME280;23688;33.130;-117.188;2024-03-23T11:03:40;99399.63;;;14.15;100.00
37848;BME280;23688;33.130;-117.188;2024-03-23T11:06:10;99387.25;;;14.08;100.00
37848;BME280;23688;33.130;-117.188;2024-03-23T11:08:38;99392.53;;;14.11;100.00
37848;BME280;23688;33.130;-117.188;2024-03-23T11:11:18;99390.63;;;14.04;100.00
37848;BME280;23688;33.130;-117.188;2024-03-23T11:13:51;99391.50;;;14.04;100.00
37848;BME280;23688;33.130;-117.188;2024-03-23T11:16:24;99397.63;;;14.05;100.00
37848;BME280;23688;33.130;-117.188;2024-03-23T11:18:54;99400.19;;;14.03;100.00
37848;BME280;23688;33.130;-117.188;2024-03-23T11:21:54;99400.06;;;13.99;100.00
37848;BME280;23688;33.130;-117.188;2024-03-23T11:24:21;99380.78;;;13.94;100.00
37848;BME280;23688;33.130;-117.188;2024-03-23T11:26:48;99394.91;;;14.00;100.00
37848;BME280;23688;33.130;-117.188;2024-03-23T11:29:16;99363.41;;;13.94;100.00
37848;BME280;23688;33.130;-117.188;2024-03-23T11:31:47;99383.47;;;13.97;100.00
37848;BME280;23688;33.130;-117.188;2024-03-23T11:34:14;99376.63;;;14.00;100.00
37848;BME280;23688;33.130;-117.188;2024-03-23T11:36:42;99365.19;;;13.97;100.00
37848;BME280;23688;33.130;-117.188;2024-03-23T11:39:14;99357.47;;;14.00;100.00
37848;BME280;23688;33.130;-117.188;2024-03-23T11:41:47;99369.81;;;14.07;100.00
37848;BME280;23688;33.130;-117.188;2024-03-23T11:44:18;99364.56;;;14.05;100.00
37848;BME280;23688;33.130;-117.188;2024-03-23T11:46:44;99362.78;;;14.04;100.00
37848;BME280;23688;33.130;-117.188;2024-03-23T11:49:27;99371.53;;;14.05;100.00
37848;BME280;23688;33.130;-117.188;2024-03-23T11:51:55;99385.53;;;14.08;100.00
37848;BME280;23688;33.130;-117.188;2024-03-23T11:54:23;99377.69;;;14.08;100.00
37848;BME280;23688;33.130;-117.188;2024-03-23T11:59:35;99372.53;;;14.11;100.00
37848;BME280;23688;33.130;-117.188;2024-03-23T12:02:12;99375.19;;;14.13;100.00
37848;BME280;23688;33.130;-117.188;2024-03-23T12:04:42;99361.91;;;14.04;100.00
37848;BME280;23688;33.130;-117.188;2024-03-23T12:07:13;99374.16;;;14.06;100.00
37848;BME280;23688;33.130;-117.188;2024-03-23T12:09:40;99383.75;;;14.07;100.00
37848;BME280;23688;33.130;-117.188;2024-03-23T12:12:26;99393.28;;;14.05;100.00
37848;BME280;23688;33.130;-117.188;2024-03-23T12:15:05;99401.03;;;14.02;100.00
37848;BME280;23688;33.130;-117.188;2024-03-23T12:17:32;99403.72;;;14.05;100.00
37848;BME280;23688;33.130;-117.188;2024-03-23T12:20:01;99402.84;;;14.05;100.00
37848;BME280;23688;33.130;-117.188;2024-03-23T12:22:28;99395.88;;;14.05;100.00
37848;BME280;23688;33.130;-117.188;2024-03-23T12:24:56;99380.91;;;13.98;100.00
37848;BME280;23688;33.130;-117.188;2024-03-23T12:27:24;99381.16;;;14.07;100.00
37848;BME280;23688;33.130;-117.188;2024-03-23T12:29:51;99379.41;;;14.08;100.00
37848;BME280;23688;33.130;-117.188;2024-03-23T12:32:17;99381.16;;;14.07;100.00
37848;BME280;23688;33.130;-117.188;2024-03-23T12:34:44;99372.41;;;14.07;100.00
37848;BME280;23688;33.130;-117.188;2024-03-23T12:37:10;99359.34;;;14.05;100.00
37848;BME280;23688;33.130;-117.188;2024-03-23T12:39:38;99358.50;;;14.06;100.00
37848;BME280;23688;33.130;-117.188;2024-03-23T12:42:04;99358.38;;;14.02;100.00
37848;BME280;23688;33.130;-117.188;2024-03-23T12:44:31;99352.19;;;13.98;100.00
37848;BME280;23688;33.130;-117.188;2024-03-23T12:46:58;99358.31;;;13.99;100.00
37848;BME280;23688;33.130;-117.188;2024-03-23T12:49:24;99363.44;;;13.96;100.00
37848;BME280;23688;33.130;-117.188;2024-03-23T12:51:55;99352.09;;;13.94;100.00
37848;BME280;23688;33.130;-117.188;2024-03-23T12:54:22;99349.34;;;13.89;100.00
37848;BME280;23688;33.130;-117.188;2024-03-23T12:56:49;99355.50;;;13.91;100.00
37848;BME280;23688;33.130;-117.188;2024-03-23T12:59:15;99353.66;;;13.87;100.00
37848;BME280;23688;33.130;-117.188;2024-03-23T13:01:44;99356.13;;;13.82;100.00
37848;BME280;23688;33.130;-117.188;2024-03-23T13:04:10;99344.50;;;13.69;100.00
37848;BME280;23688;33.130;-117.188;2024-03-23T13:06:37;99343.75;;;13.74;100.00
37848;BME280;23688;33.130;-117.188;2024-03-23T13:09:04;99352.25;;;13.66;100.00
37848;BME280;23688;33.130;-117.188;2024-03-23T13:11:31;99338.97;;;13.57;100.00
37848;BME280;23688;33.130;-117.188;2024-03-23T13:13:57;99338.91;;;13.56;100.00
37848;BME280;23688;33.130;-117.188;2024-03-23T13:16:24;99342.31;;;13.53;100.00
37848;BME280;23688;33.130;-117.188;2024-03-23T13:18:52;99353.66;;;13.54;100.00
37848;BME280;23688;33.130;-117.188;2024-03-23T13:21:18;99354.53;;;13.54;100.00
37848;BME280;23688;33.130;-117.188;2024-03-23T13:23:48;99357.09;;;13.53;100.00
37848;BME280;23688;33.130;-117.188;2024-03-23T13:26:17;99357.00;;;13.49;100.00